sensor_id;sensor_type;location;lat;lon;timestamp;P1;durP1;ratioP1;P2;durP2;ratioP2
47922;SDS011;33688;44.354;9.228;2023-07-13T00:01:49;11.40;;;4.07;;
47922;SDS011;33688;44.354;9.228;2023-07-13T00:04:16;10.77;;;4.47;;
47922;SDS011;33688;44.354;9.228;2023-07-13T00:06:46;8.85;;;4.38;;
47922;SDS011;33688;44.354;9.228;2023-07-13T00:09:14;8.27;;;4.30;;
47922;SDS011;33688;44.354;9.228;2023-07-13T00:11:41;9.68;;;4.63;;
47922;SDS011;33688;44.354;9.228;2023-07-13T00:14:10;11.60;;;4.03;;
47922;SDS011;33688;44.354;9.228;2023-07-13T00:16:37;8.85;;;4.50;;
47922;SDS011;33688;44.354;9.228;2023-07-13T00:19:09;5.95;;;3.28;;
47922;SDS011;33688;44.354;9.228;2023-07-13T00:21:37;7.03;;;3.30;;
47922;SDS011;33688;44.354;9.228;2023-07-13T00:24:04;9.50;;;3.63;;
47922;SDS011;33688;44.354;9.228;2023-07-13T00:26:34;13.00;;;4.80;;
47922;SDS011;33688;44.354;9.228;2023-07-13T00:29:02;10.52;;;4.03;;
47922;SDS011;33688;44.354;9.228;2023-07-13T00:31:30;7.97;;;3.65;;
47922;SDS011;33688;44.354;9.228;2023-07-13T00:33:56;10.60;;;4.13;;
47922;SDS011;33688;44.354;9.228;2023-07-13T00:36:24;10.55;;;4.15;;
47922;SDS011;33688;44.354;9.228;2023-07-13T00:38:51;9.00;;;3.75;;
47922;SDS011;33688;44.354;9.228;2023-07-13T00:41:17;9.32;;;4.63;;
47922;SDS011;33688;44.354;9.228;2023-07-13T00:43:44;6.63;;;3.90;;
47922;SDS011;33688;44.354;9.228;2023-07-13T00:46:24;12.38;;;4.60;;
47922;SDS011;33688;44.354;9.228;2023-07-13T00:48:54;10.23;;;4.47;;
47922;SDS011;33688;44.354;9.228;2023-07-13T00:51:27;10.07;;;3.63;;
47922;SDS011;33688;44.354;9.228;2023-07-13T00:54:00;10.77;;;4.25;;
47922;SDS011;33688;44.354;9.228;2023-07-13T00:56:32;7.85;;;4.00;;
47922;SDS011;33688;44.354;9.228;2023-07-13T00:59:00;11.10;;;4.10;;
47922;SDS011;33688;44.354;9.228;2023-07-13T01:01:30;9.05;;;4.18;;
47922;SDS011;33688;44.354;9.228;2023-07-13T01:03:58;8.63;;;3.78;;
47922;SDS011;33688;44.354;9.228;2023-07-13T01:06:24;8.80;;;4.00;;
47922;SDS011;33688;44.354;9.228;2023-07-13T01:08:50;8.63;;;4.15;;
47922;SDS011;33688;44.354;9.228;2023-07-13T01:11:20;9.07;;;4.78;;
47922;SDS011;33688;44.354;9.228;2023-07-13T01:13:49;9.63;;;4.05;;
47922;SDS011;33688;44.354;9.228;2023-07-13T01:16:26;10.50;;;4.13;;
47922;SDS011;33688;44.354;9.228;2023-07-13T01:18:55;9.13;;;4.05;;
47922;SDS011;33688;44.354;9.228;2023-07-13T01:21:23;9.75;;;4.05;;
47922;SDS011;33688;44.354;9.228;2023-07-13T01:23:51;11.02;;;4.50;;
47922;SDS011;33688;44.354;9.228;2023-07-13T01:26:18;10.68;;;4.25;;
47922;SDS011;33688;44.354;9.228;2023-07-13T01:28:44;6.35;;;3.90;;
47922;SDS011;33688;44.354;9.228;2023-07-13T01:31:10;7.05;;;3.63;;
47922;SDS011;33688;44.354;9.228;2023-07-13T01:33:37;9.27;;;4.47;;
47922;SDS011;33688;44.354;9.228;2023-07-13T01:36:08;11.65;;;4.57;;
47922;SDS011;33688;44.354;9.228;2023-07-13T01:38:36;8.73;;;3.67;;
47922;SDS011;33688;44.354;9.228;2023-07-13T01:41:02;6.65;;;3.92;;
47922;SDS011;33688;44.354;9.228;2023-07-13T01:43:29;8.57;;;3.60;;
47922;SDS011;33688;44.354;9.228;2023-07-13T01:45:55;8.30;;;3.80;;
47922;SDS011;33688;44.354;9.228;2023-07-13T01:48:21;7.95;;;4.00;;
47922;SDS011;33688;44.354;9.228;2023-07-13T01:50:48;8.60;;;4.20;;
47922;SDS011;33688;44.354;9.228;2023-07-13T01:53:15;8.25;;;3.33;;
47922;SDS011;33688;44.354;9.228;2023-07-13T01:55:42;4.97;;;3.08;;
47922;SDS011;33688;44.354;9.228;2023-07-13T01:58:08;8.15;;;4.28;;
47922;SDS011;33688;44.354;9.228;2023-07-13T02:00:35;9.10;;;4.18;;
47922;SDS011;33688;44.354;9.228;2023-07-13T02:03:01;8.75;;;3.63;;
47922;SDS011;33688;44.354;9.228;2023-07-13T02:05:28;7.10;;;3.33;;
47922;SDS011;33688;44.354;9.228;2023-07-13T02:07:53;5.63;;;3.72;;
47922;SDS011;33688;44.354;9.228;2023-07-13T02:10:19;6.15;;;3.92;;
47922;SDS011;33688;44.354;9.228;2023-07-13T02:12:45;5.70;;;3.08;;
47922;SDS011;33688;44.354;9.228;2023-07-13T02:15:12;6.38;;;3.28;;
47922;SDS011;33688;44.354;9.228;2023-07-13T02:17:38;6.30;;;3.70;;
47922;SDS011;33688;44.354;9.228;2023-07-13T02:20:05;7.53;;;4.18;;
47922;SDS011;33688;44.354;9.228;2023-07-13T02:22:33;6.28;;;3.20;;
47922;SDS011;33688;44.354;9.228;2023-07-13T02:25:00;6.68;;;3.75;;
47922;SDS011;33688;44.354;9.228;2023-07-13T02:27:26;7.03;;;4.00;;
47922;SDS011;33688;44.354;9.228;2023-07-13T02:29:53;9.05;;;3.40;;
47922;SDS011;33688;44.354;9.228;2023-07-13T02:32:20;6.40;;;3.50;;
47922;SDS011;33688;44.354;9.228;2023-07-13T02:34:46;5.80;;;3.17;;
47922;SDS011;33688;44.354;9.228;2023-07-13T02:37:12;7.75;;;3.60;;
47922;SDS011;33688;44.354;9.228;2023-07-13T02:39:39;5.45;;;3.75;;
47922;SDS011;33688;44.354;9.228;2023-07-13T02:42:05;6.50;;;3.33;;
47922;SDS011;33688;44.354;9.228;2023-07-13T02:44:33;5.93;;;3.28;;
47922;SDS011;33688;44.354;9.228;2023-07-13T02:47:00;3.85;;;2.85;;
47922;SDS011;33688;44.354;9.228;2023-07-13T02:49:26;5.63;;;3.17;;
47922;SDS011;33688;44.354;9.228;2023-07-13T02:51:51;6.60;;;3.13;;
47922;SDS011;33688;44.354;9.228;2023-07-13T02:54:17;6.15;;;2.92;;
47922;SDS011;33688;44.354;9.228;2023-07-13T02:56:43;5.20;;;3.35;;
47922;SDS011;33688;44.354;9.228;2023-07-13T02:59:10;3.75;;;2.83;;
47922;SDS011;33688;44.354;9.228;2023-07-13T03:01:38;3.55;;;2.55;;
47922;SDS011;33688;44.354;9.228;2023-07-13T03:04:04;3.67;;;2.38;;
47922;SDS011;33688;44.354;9.228;2023-07-13T03:06:33;4.55;;;2.85;;
47922;SDS011;33688;44.354;9.228;2023-07-13T03:09:00;5.05;;;2.60;;
47922;SDS011;33688;44.354;9.228;2023-07-13T03:11:28;3.33;;;2.35;;
47922;SDS011;33688;44.354;9.228;2023-07-13T03:14:33;5.20;;;2.58;;
47922;SDS011;33688;44.354;9.228;2023-07-13T03:17:02;3.53;;;2.50;;
47922;SDS011;33688;44.354;9.228;2023-07-13T03:19:31;3.38;;;2.55;;
47922;SDS011;33688;44.354;9.228;2023-07-13T03:21:57;4.18;;;2.60;;
47922;SDS011;33688;44.354;9.228;2023-07-13T03:24:23;4.18;;;2.45;;
47922;SDS011;33688;44.354;9.228;2023-07-13T03:26:51;4.63;;;2.85;;
47922;SDS011;33688;44.354;9.228;2023-07-13T03:29:18;3.30;;;2.75;;
47922;SDS011;33688;44.354;9.228;2023-07-13T03:31:45;4.47;;;2.65;;
47922;SDS011;33688;44.354;9.228;2023-07-13T03:34:11;4.00;;;2.78;;
47922;SDS011;33688;44.354;9.228;2023-07-13T03:36:37;3.13;;;2.17;;
47922;SDS011;33688;44.354;9.228;2023-07-13T03:39:08;3.20;;;2.42;;
47922;SDS011;33688;44.354;9.228;2023-07-13T03:41:42;3.25;;;2.22;;
47922;SDS011;33688;44.354;9.228;2023-07-13T03:44:08;4.57;;;2.70;;
47922;SDS011;33688;44.354;9.228;2023-07-13T03:46:34;3.80;;;2.42;;
47922;SDS011;33688;44.354;9.228;2023-07-13T03:49:01;4.50;;;2.65;;
47922;SDS011;33688;44.354;9.228;2023-07-13T03:51:28;3.22;;;2.17;;
47922;SDS011;33688;44.354;9.228;2023-07-13T03:53:53;5.22;;;2.97;;
47922;SDS011;33688;44.354;9.228;2023-07-13T03:56:20;3.25;;;2.50;;
47922;SDS011;33688;44.354;9.228;2023-07-13T03:58:47;3.42;;;2.58;;
47922;SDS011;33688;44.354;9.228;2023-07-13T04:01:19;3.88;;;2.30;;
47922;SDS011;33688;44.354;9.228;2023-07-13T04:03:47;3.60;;;2.40;;
47922;SDS011;33688;44.354;9.228;2023-07-13T04:06:15;3.35;;;2.42;;
47922;SDS011;33688;44.354;9.228;2023-07-13T04:08:53;4.13;;;2.45;;
47922;SDS011;33688;44.354;9.228;2023-07-13T04:14:08;4.03;;;2.38;;
47922;SDS011;33688;44.354;9.228;2023-07-13T04:19:23;4.38;;;2.85;;
47922;SDS011;33688;44.354;9.228;2023-07-13T04:24:33;3.83;;;2.55;;
47922;SDS011;33688;44.354;9.228;2023-07-13T04:27:00;2.58;;;2.00;;
47922;SDS011;33688;44.354;9.228;2023-07-13T04:29:28;3.47;;;2.17;;
47922;SDS011;33688;44.354;9.228;2023-07-13T04:31:54;4.03;;;2.55;;
47922;SDS011;33688;44.354;9.228;2023-07-13T04:34:20;3.17;;;2.20;;
47922;SDS011;33688;44.354;9.228;2023-07-13T04:36:46;3.85;;;2.30;;
47922;SDS011;33688;44.354;9.228;2023-07-13T04:39:12;3.35;;;2.28;;
47922;SDS011;33688;44.354;9.228;2023-07-13T04:41:38;3.67;;;2.45;;
47922;SDS011;33688;44.354;9.228;2023-07-13T04:44:04;5.30;;;2.90;;
47922;SDS011;33688;44.354;9.228;2023-07-13T04:46:29;3.22;;;2.30;;
47922;SDS011;33688;44.354;9.228;2023-07-13T04:48:56;2.83;;;2.30;;
47922;SDS011;33688;44.354;9.228;2023-07-13T04:51:23;4.28;;;3.28;;
47922;SDS011;33688;44.354;9.228;2023-07-13T04:53:49;5.07;;;2.72;;
47922;SDS011;33688;44.354;9.228;2023-07-13T04:56:15;3.53;;;2.30;;
47922;SDS011;33688;44.354;9.228;2023-07-13T04:58:41;6.32;;;2.65;;
47922;SDS011;33688;44.354;9.228;2023-07-13T05:01:07;3.67;;;2.22;;
47922;SDS011;33688;44.354;9.228;2023-07-13T05:03:34;2.70;;;1.95;;
47922;SDS011;33688;44.354;9.228;2023-07-13T05:06:03;5.15;;;2.42;;
47922;SDS011;33688;44.354;9.228;2023-07-13T05:08:31;3.83;;;2.47;;
47922;SDS011;33688;44.354;9.228;2023-07-13T05:11:01;2.90;;;2.00;;
47922;SDS011;33688;44.354;9.228;2023-07-13T05:13:30;3.22;;;2.20;;
47922;SDS011;33688;44.354;9.228;2023-07-13T05:18:41;3.78;;;2.40;;
47922;SDS011;33688;44.354;9.228;2023-07-13T05:21:09;5.60;;;3.03;;
47922;SDS011;33688;44.354;9.228;2023-07-13T05:23:36;2.60;;;2.33;;
47922;SDS011;33688;44.354;9.228;2023-07-13T05:26:04;4.97;;;2.60;;
47922;SDS011;33688;44.354;9.228;2023-07-13T05:28:30;3.38;;;2.25;;
47922;SDS011;33688;44.354;9.228;2023-07-13T05:30:58;4.10;;;2.50;;
47922;SDS011;33688;44.354;9.228;2023-07-13T05:33:25;3.67;;;2.30;;
47922;SDS011;33688;44.354;9.228;2023-07-13T05:35:53;2.47;;;2.28;;
47922;SDS011;33688;44.354;9.228;2023-07-13T05:38:18;5.38;;;2.80;;
47922;SDS011;33688;44.354;9.228;2023-07-13T05:40:45;4.28;;;2.35;;
47922;SDS011;33688;44.354;9.228;2023-07-13T05:43:12;3.85;;;2.22;;
47922;SDS011;33688;44.354;9.228;2023-07-13T05:45:39;3.45;;;2.45;;
47922;SDS011;33688;44.354;9.228;2023-07-13T05:48:05;3.75;;;2.35;;
47922;SDS011;33688;44.354;9.228;2023-07-13T05:50:31;3.67;;;2.60;;
47922;SDS011;33688;44.354;9.228;2023-07-13T05:52:57;3.10;;;2.15;;
47922;SDS011;33688;44.354;9.228;2023-07-13T05:55:24;2.60;;;2.35;;
47922;SDS011;33688;44.354;9.228;2023-07-13T05:57:50;3.30;;;2.47;;
47922;SDS011;33688;44.354;9.228;2023-07-13T06:03:01;4.60;;;2.33;;
47922;SDS011;33688;44.354;9.228;2023-07-13T06:05:28;5.18;;;2.72;;
47922;SDS011;33688;44.354;9.228;2023-07-13T06:07:54;3.83;;;2.53;;
47922;SDS011;33688;44.354;9.228;2023-07-13T06:10:21;2.85;;;2.25;;
47922;SDS011;33688;44.354;9.228;2023-07-13T06:12:47;3.95;;;2.47;;
47922;SDS011;33688;44.354;9.228;2023-07-13T06:18:02;2.33;;;2.10;;
47922;SDS011;33688;44.354;9.228;2023-07-13T06:20:29;3.15;;;2.13;;
47922;SDS011;33688;44.354;9.228;2023-07-13T06:22:55;6.05;;;2.75;;
47922;SDS011;33688;44.354;9.228;2023-07-13T06:25:22;3.78;;;2.28;;
47922;SDS011;33688;44.354;9.228;2023-07-13T06:27:49;3.55;;;2.38;;
47922;SDS011;33688;44.354;9.228;2023-07-13T06:30:14;2.35;;;2.10;;
47922;SDS011;33688;44.354;9.228;2023-07-13T06:32:41;2.72;;;1.77;;
47922;SDS011;33688;44.354;9.228;2023-07-13T06:35:07;3.65;;;1.95;;
47922;SDS011;33688;44.354;9.228;2023-07-13T06:37:34;2.38;;;2.17;;
47922;SDS011;33688;44.354;9.228;2023-07-13T06:40:00;3.20;;;2.08;;
47922;SDS011;33688;44.354;9.228;2023-07-13T06:42:26;3.20;;;2.20;;
47922;SDS011;33688;44.354;9.228;2023-07-13T06:44:52;2.88;;;2.10;;
47922;SDS011;33688;44.354;9.228;2023-07-13T06:47:20;10.52;;;2.67;;
47922;SDS011;33688;44.354;9.228;2023-07-13T06:49:47;9.93;;;2.95;;
47922;SDS011;33688;44.354;9.228;2023-07-13T06:52:13;4.88;;;2.97;;
47922;SDS011;33688;44.354;9.228;2023-07-13T06:54:39;6.07;;;2.78;;
47922;SDS011;33688;44.354;9.228;2023-07-13T06:57:05;6.72;;;2.85;;
47922;SDS011;33688;44.354;9.228;2023-07-13T06:59:32;7.68;;;2.70;;
47922;SDS011;33688;44.354;9.228;2023-07-13T07:01:58;6.68;;;2.75;;
47922;SDS011;33688;44.354;9.228;2023-07-13T07:04:24;6.55;;;2.83;;
47922;SDS011;33688;44.354;9.228;2023-07-13T07:06:50;5.72;;;3.03;;
47922;SDS011;33688;44.354;9.228;2023-07-13T07:09:17;7.63;;;3.10;;
47922;SDS011;33688;44.354;9.228;2023-07-13T07:11:44;5.15;;;2.72;;
47922;SDS011;33688;44.354;9.228;2023-07-13T07:14:11;7.60;;;2.78;;
47922;SDS011;33688;44.354;9.228;2023-07-13T07:16:36;7.78;;;3.10;;
47922;SDS011;33688;44.354;9.228;2023-07-13T07:19:02;9.65;;;3.28;;
47922;SDS011;33688;44.354;9.228;2023-07-13T07:21:28;8.55;;;3.15;;
47922;SDS011;33688;44.354;9.228;2023-07-13T07:23:54;11.85;;;2.83;;
47922;SDS011;33688;44.354;9.228;2023-07-13T07:26:24;7.45;;;2.90;;
47922;SDS011;33688;44.354;9.228;2023-07-13T07:28:49;13.32;;;3.03;;
47922;SDS011;33688;44.354;9.228;2023-07-13T07:34:02;12.27;;;4.43;;
47922;SDS011;33688;44.354;9.228;2023-07-13T07:36:29;11.70;;;4.30;;
47922;SDS011;33688;44.354;9.228;2023-07-13T07:38:56;13.32;;;4.88;;
47922;SDS011;33688;44.354;9.228;2023-07-13T07:41:21;12.90;;;4.43;;
47922;SDS011;33688;44.354;9.228;2023-07-13T07:43:49;10.88;;;3.88;;
47922;SDS011;33688;44.354;9.228;2023-07-13T07:46:15;10.57;;;3.95;;
47922;SDS011;33688;44.354;9.228;2023-07-13T07:48:40;17.15;;;4.57;;
47922;SDS011;33688;44.354;9.228;2023-07-13T07:51:06;10.07;;;3.70;;
47922;SDS011;33688;44.354;9.228;2023-07-13T07:53:32;7.13;;;3.10;;
47922;SDS011;33688;44.354;9.228;2023-07-13T07:55:58;9.85;;;3.63;;
47922;SDS011;33688;44.354;9.228;2023-07-13T07:58:24;9.73;;;3.95;;
47922;SDS011;33688;44.354;9.228;2023-07-13T08:00:49;10.05;;;4.13;;
47922;SDS011;33688;44.354;9.228;2023-07-13T08:03:15;14.48;;;4.32;;
47922;SDS011;33688;44.354;9.228;2023-07-13T08:05:42;14.65;;;3.90;;
47922;SDS011;33688;44.354;9.228;2023-07-13T08:08:08;14.32;;;4.60;;
47922;SDS011;33688;44.354;9.228;2023-07-13T08:10:35;10.23;;;3.95;;
47922;SDS011;33688;44.354;9.228;2023-07-13T08:13:02;13.20;;;4.07;;
47922;SDS011;33688;44.354;9.228;2023-07-13T08:15:30;11.52;;;3.70;;
47922;SDS011;33688;44.354;9.228;2023-07-13T08:17:56;13.32;;;4.35;;
47922;SDS011;33688;44.354;9.228;2023-07-13T08:20:23;10.48;;;4.07;;
47922;SDS011;33688;44.354;9.228;2023-07-13T08:22:49;17.50;;;3.92;;
47922;SDS011;33688;44.354;9.228;2023-07-13T08:25:14;11.55;;;4.18;;
47922;SDS011;33688;44.354;9.228;2023-07-13T08:27:40;4.70;;;2.75;;
47922;SDS011;33688;44.354;9.228;2023-07-13T08:30:06;10.93;;;3.60;;
47922;SDS011;33688;44.354;9.228;2023-07-13T08:32:33;8.95;;;3.20;;
47922;SDS011;33688;44.354;9.228;2023-07-13T08:34:59;7.38;;;3.75;;
47922;SDS011;33688;44.354;9.228;2023-07-13T08:37:25;8.32;;;4.07;;
47922;SDS011;33688;44.354;9.228;2023-07-13T08:39:51;8.95;;;3.78;;
47922;SDS011;33688;44.354;9.228;2023-07-13T08:45:23;8.02;;;3.42;;
47922;SDS011;33688;44.354;9.228;2023-07-13T08:50:59;7.57;;;3.55;;
47922;SDS011;33688;44.354;9.228;2023-07-13T08:53:58;7.85;;;3.28;;
47922;SDS011;33688;44.354;9.228;2023-07-13T08:56:29;5.68;;;2.92;;
47922;SDS011;33688;44.354;9.228;2023-07-13T08:59:06;7.30;;;3.05;;
47922;SDS011;33688;44.354;9.228;2023-07-13T09:16:38;6.78;;;2.97;;
47922;SDS011;33688;44.354;9.228;2023-07-13T09:19:05;6.75;;;2.95;;
47922;SDS011;33688;44.354;9.228;2023-07-13T09:21:38;7.97;;;3.35;;
47922;SDS011;33688;44.354;9.228;2023-07-13T09:27:03;5.47;;;2.80;;
47922;SDS011;33688;44.354;9.228;2023-07-13T09:30:02;6.45;;;2.55;;
47922;SDS011;33688;44.354;9.228;2023-07-13T09:32:52;7.53;;;2.80;;
47922;SDS011;33688;44.354;9.228;2023-07-13T09:35:22;4.32;;;2.55;;
47922;SDS011;33688;44.354;9.228;2023-07-13T09:37:57;9.32;;;2.70;;
47922;SDS011;33688;44.354;9.228;2023-07-13T09:46:28;5.13;;;2.47;;
47922;SDS011;33688;44.354;9.228;2023-07-13T09:48:54;5.85;;;3.00;;
47922;SDS011;33688;44.354;9.228;2023-07-13T09:54:24;8.98;;;3.50;;
47922;SDS011;33688;44.354;9.228;2023-07-13T09:56:55;4.57;;;2.80;;
47922;SDS011;33688;44.354;9.228;2023-07-13T09:59:32;5.95;;;2.92;;
47922;SDS011;33688;44.354;9.228;2023-07-13T10:02:00;8.52;;;2.97;;
47922;SDS011;33688;44.354;9.228;2023-07-13T10:04:31;9.82;;;2.90;;
47922;SDS011;33688;44.354;9.228;2023-07-13T10:09:38;4.10;;;2.15;;
47922;SDS011;33688;44.354;9.228;2023-07-13T10:12:14;5.07;;;2.55;;
47922;SDS011;33688;44.354;9.228;2023-07-13T10:14:41;4.45;;;2.30;;
47922;SDS011;33688;44.354;9.228;2023-07-13T10:17:10;6.18;;;2.55;;
47922;SDS011;33688;44.354;9.228;2023-07-13T10:19:39;5.20;;;2.63;;
47922;SDS011;33688;44.354;9.228;2023-07-13T10:24:49;4.22;;;2.45;;
47922;SDS011;33688;44.354;9.228;2023-07-13T10:27:20;4.90;;;2.70;;
47922;SDS011;33688;44.354;9.228;2023-07-13T10:30:42;4.90;;;2.20;;
47922;SDS011;33688;44.354;9.228;2023-07-13T10:33:08;8.20;;;2.80;;
47922;SDS011;33688;44.354;9.228;2023-07-13T10:35:37;3.97;;;2.50;;
47922;SDS011;33688;44.354;9.228;2023-07-13T10:38:20;8.02;;;2.53;;
47922;SDS011;33688;44.354;9.228;2023-07-13T10:40:55;5.45;;;2.53;;
47922;SDS011;33688;44.354;9.228;2023-07-13T10:43:36;3.95;;;2.67;;
47922;SDS011;33688;44.354;9.228;2023-07-13T10:46:08;4.30;;;1.95;;
47922;SDS011;33688;44.354;9.228;2023-07-13T10:48:38;3.22;;;1.75;;
47922;SDS011;33688;44.354;9.228;2023-07-13T10:51:05;7.20;;;2.38;;
47922;SDS011;33688;44.354;9.228;2023-07-13T10:53:33;21.40;;;2.50;;
47922;SDS011;33688;44.354;9.228;2023-07-13T11:04:29;3.97;;;1.95;;
47922;SDS011;33688;44.354;9.228;2023-07-13T11:07:11;4.07;;;2.28;;
47922;SDS011;33688;44.354;9.228;2023-07-13T11:09:51;5.85;;;3.13;;
47922;SDS011;33688;44.354;9.228;2023-07-13T11:17:56;4.22;;;2.20;;
47922;SDS011;33688;44.354;9.228;2023-07-13T11:25:39;5.00;;;2.58;;
47922;SDS011;33688;44.354;9.228;2023-07-13T11:30:40;3.53;;;2.22;;
47922;SDS011;33688;44.354;9.228;2023-07-13T11:33:45;4.85;;;2.17;;
47922;SDS011;33688;44.354;9.228;2023-07-13T11:36:22;3.35;;;1.67;;
47922;SDS011;33688;44.354;9.228;2023-07-13T11:44:25;4.60;;;2.30;;
47922;SDS011;33688;44.354;9.228;2023-07-13T11:46:57;4.45;;;2.10;;
47922;SDS011;33688;44.354;9.228;2023-07-13T11:49:38;5.88;;;2.30;;
47922;SDS011;33688;44.354;9.228;2023-07-13T11:55:04;4.25;;;1.90;;
47922;SDS011;33688;44.354;9.228;2023-07-13T11:57:44;5.43;;;2.17;;
47922;SDS011;33688;44.354;9.228;2023-07-13T12:00:20;4.78;;;2.70;;
47922;SDS011;33688;44.354;9.228;2023-07-13T12:02:52;4.40;;;2.17;;
47922;SDS011;33688;44.354;9.228;2023-07-13T12:05:21;4.13;;;2.10;;
47922;SDS011;33688;44.354;9.228;2023-07-13T12:07:50;5.00;;;2.25;;
47922;SDS011;33688;44.354;9.228;2023-07-13T12:10:19;4.20;;;2.10;;
47922;SDS011;33688;44.354;9.228;2023-07-13T12:13:04;4.18;;;1.88;;
47922;SDS011;33688;44.354;9.228;2023-07-13T12:15:41;4.28;;;2.38;;
47922;SDS011;33688;44.354;9.228;2023-07-13T12:18:15;4.25;;;2.08;;
47922;SDS011;33688;44.354;9.228;2023-07-13T12:20:48;3.90;;;2.47;;
47922;SDS011;33688;44.354;9.228;2023-07-13T12:26:01;2.92;;;1.77;;
47922;SDS011;33688;44.354;9.228;2023-07-13T12:28:36;5.07;;;1.65;;
47922;SDS011;33688;44.354;9.228;2023-07-13T12:31:22;6.18;;;2.33;;
47922;SDS011;33688;44.354;9.228;2023-07-13T12:36:35;6.70;;;2.40;;
47922;SDS011;33688;44.354;9.228;2023-07-13T12:39:06;6.22;;;2.22;;
47922;SDS011;33688;44.354;9.228;2023-07-13T12:42:18;6.22;;;2.00;;
47922;SDS011;33688;44.354;9.228;2023-07-13T12:44:53;4.68;;;2.30;;
47922;SDS011;33688;44.354;9.228;2023-07-13T12:47:43;5.90;;;2.30;;
47922;SDS011;33688;44.354;9.228;2023-07-13T12:50:16;3.87;;;2.20;;
47922;SDS011;33688;44.354;9.228;2023-07-13T12:52:54;4.80;;;2.75;;
47922;SDS011;33688;44.354;9.228;2023-07-13T12:55:29;6.22;;;2.90;;
47922;SDS011;33688;44.354;9.228;2023-07-13T13:00:37;4.55;;;2.53;;
47922;SDS011;33688;44.354;9.228;2023-07-13T13:03:21;7.22;;;2.72;;
47922;SDS011;33688;44.354;9.228;2023-07-13T13:06:03;5.40;;;2.17;;
47922;SDS011;33688;44.354;9.228;2023-07-13T13:08:35;4.63;;;2.13;;
47922;SDS011;33688;44.354;9.228;2023-07-13T13:11:04;5.63;;;2.83;;
47922;SDS011;33688;44.354;9.228;2023-07-13T13:13:31;3.97;;;2.33;;
47922;SDS011;33688;44.354;9.228;2023-07-13T13:16:01;10.23;;;2.25;;
47922;SDS011;33688;44.354;9.228;2023-07-13T13:19:19;5.47;;;2.30;;
47922;SDS011;33688;44.354;9.228;2023-07-13T13:21:50;6.03;;;2.38;;
47922;SDS011;33688;44.354;9.228;2023-07-13T13:24:19;6.75;;;2.17;;
47922;SDS011;33688;44.354;9.228;2023-07-13T13:26:49;3.55;;;2.47;;
47922;SDS011;33688;44.354;9.228;2023-07-13T13:29:17;10.85;;;3.25;;
47922;SDS011;33688;44.354;9.228;2023-07-13T13:31:50;7.53;;;3.00;;
47922;SDS011;33688;44.354;9.228;2023-07-13T13:34:19;6.53;;;2.55;;
47922;SDS011;33688;44.354;9.228;2023-07-13T13:36:49;4.50;;;2.22;;
47922;SDS011;33688;44.354;9.228;2023-07-13T13:39:24;3.58;;;2.13;;
47922;SDS011;33688;44.354;9.228;2023-07-13T13:42:02;5.82;;;2.47;;
47922;SDS011;33688;44.354;9.228;2023-07-13T13:44:29;3.65;;;2.50;;
47922;SDS011;33688;44.354;9.228;2023-07-13T13:46:56;3.75;;;2.00;;
47922;SDS011;33688;44.354;9.228;2023-07-13T13:49:27;4.25;;;2.00;;
47922;SDS011;33688;44.354;9.228;2023-07-13T13:51:56;6.78;;;2.75;;
47922;SDS011;33688;44.354;9.228;2023-07-13T13:54:23;9.57;;;3.13;;
47922;SDS011;33688;44.354;9.228;2023-07-13T13:56:51;5.43;;;2.40;;
47922;SDS011;33688;44.354;9.228;2023-07-13T13:59:18;6.47;;;2.90;;
47922;SDS011;33688;44.354;9.228;2023-07-13T14:01:46;6.25;;;2.42;;
47922;SDS011;33688;44.354;9.228;2023-07-13T14:04:21;6.40;;;2.30;;
47922;SDS011;33688;44.354;9.228;2023-07-13T14:06:49;6.05;;;2.90;;
47922;SDS011;33688;44.354;9.228;2023-07-13T14:09:17;8.15;;;2.47;;
47922;SDS011;33688;44.354;9.228;2023-07-13T14:11:45;8.45;;;3.42;;
47922;SDS011;33688;44.354;9.228;2023-07-13T14:14:17;5.15;;;2.42;;
47922;SDS011;33688;44.354;9.228;2023-07-13T14:17:41;8.07;;;3.10;;
47922;SDS011;33688;44.354;9.228;2023-07-13T14:22:26;7.75;;;2.65;;
47922;SDS011;33688;44.354;9.228;2023-07-13T14:24:55;9.15;;;2.72;;
47922;SDS011;33688;44.354;9.228;2023-07-13T14:27:24;6.72;;;2.20;;
47922;SDS011;33688;44.354;9.228;2023-07-13T14:29:50;3.05;;;1.90;;
47922;SDS011;33688;44.354;9.228;2023-07-13T14:35:03;4.10;;;2.13;;
47922;SDS011;33688;44.354;9.228;2023-07-13T14:37:29;3.53;;;2.03;;
47922;SDS011;33688;44.354;9.228;2023-07-13T14:39:54;5.00;;;2.70;;
47922;SDS011;33688;44.354;9.228;2023-07-13T14:42:20;8.15;;;3.05;;
47922;SDS011;33688;44.354;9.228;2023-07-13T14:44:46;5.78;;;2.95;;
47922;SDS011;33688;44.354;9.228;2023-07-13T14:47:11;4.22;;;2.45;;
47922;SDS011;33688;44.354;9.228;2023-07-13T14:49:38;4.95;;;2.40;;
47922;SDS011;33688;44.354;9.228;2023-07-13T14:52:20;7.35;;;2.65;;
47922;SDS011;33688;44.354;9.228;2023-07-13T14:54:49;5.80;;;2.73;;
47922;SDS011;33688;44.354;9.228;2023-07-13T14:57:19;6.18;;;2.55;;
47922;SDS011;33688;44.354;9.228;2023-07-13T14:59:46;5.32;;;2.35;;
47922;SDS011;33688;44.354;9.228;2023-07-13T15:04:40;7.47;;;2.53;;
47922;SDS011;33688;44.354;9.228;2023-07-13T15:07:07;8.82;;;2.10;;
47922;SDS011;33688;44.354;9.228;2023-07-13T15:09:36;4.40;;;2.22;;
47922;SDS011;33688;44.354;9.228;2023-07-13T15:12:04;6.75;;;2.50;;
47922;SDS011;33688;44.354;9.228;2023-07-13T15:14:30;8.05;;;3.22;;
47922;SDS011;33688;44.354;9.228;2023-07-13T15:16:58;8.02;;;3.00;;
47922;SDS011;33688;44.354;9.228;2023-07-13T15:19:25;8.93;;;2.55;;
47922;SDS011;33688;44.354;9.228;2023-07-13T15:21:51;5.68;;;2.90;;
47922;SDS011;33688;44.354;9.228;2023-07-13T15:24:19;8.52;;;3.00;;
47922;SDS011;33688;44.354;9.228;2023-07-13T15:29:39;7.30;;;2.63;;
47922;SDS011;33688;44.354;9.228;2023-07-13T15:32:18;6.88;;;2.83;;
47922;SDS011;33688;44.354;9.228;2023-07-13T15:34:45;7.63;;;2.35;;
47922;SDS011;33688;44.354;9.228;2023-07-13T15:37:14;8.52;;;2.45;;
47922;SDS011;33688;44.354;9.228;2023-07-13T15:39:41;5.47;;;2.70;;
47922;SDS011;33688;44.354;9.228;2023-07-13T15:42:12;4.88;;;2.90;;
47922;SDS011;33688;44.354;9.228;2023-07-13T15:44:45;4.78;;;2.63;;
47922;SDS011;33688;44.354;9.228;2023-07-13T15:47:12;5.63;;;2.53;;
47922;SDS011;33688;44.354;9.228;2023-07-13T15:49:40;6.35;;;2.67;;
47922;SDS011;33688;44.354;9.228;2023-07-13T15:52:18;6.13;;;2.13;;
47922;SDS011;33688;44.354;9.228;2023-07-13T15:54:48;6.38;;;2.55;;
47922;SDS011;33688;44.354;9.228;2023-07-13T15:57:15;3.75;;;1.92;;
47922;SDS011;33688;44.354;9.228;2023-07-13T15:59:42;6.72;;;3.85;;
47922;SDS011;33688;44.354;9.228;2023-07-13T16:02:13;8.00;;;3.15;;
47922;SDS011;33688;44.354;9.228;2023-07-13T16:04:45;4.63;;;2.65;;
47922;SDS011;33688;44.354;9.228;2023-07-13T16:07:12;9.25;;;2.75;;
47922;SDS011;33688;44.354;9.228;2023-07-13T16:09:44;12.07;;;4.03;;
47922;SDS011;33688;44.354;9.228;2023-07-13T16:15:04;6.90;;;3.00;;
47922;SDS011;33688;44.354;9.228;2023-07-13T16:17:45;9.18;;;3.25;;
47922;SDS011;33688;44.354;9.228;2023-07-13T16:20:14;7.20;;;2.85;;
47922;SDS011;33688;44.354;9.228;2023-07-13T16:22:41;5.88;;;3.08;;
47922;SDS011;33688;44.354;9.228;2023-07-13T16:25:15;4.78;;;2.70;;
47922;SDS011;33688;44.354;9.228;2023-07-13T16:27:48;6.88;;;2.95;;
47922;SDS011;33688;44.354;9.228;2023-07-13T16:30:21;6.43;;;2.97;;
47922;SDS011;33688;44.354;9.228;2023-07-13T16:32:53;8.75;;;3.47;;
47922;SDS011;33688;44.354;9.228;2023-07-13T16:35:21;5.43;;;2.42;;
47922;SDS011;33688;44.354;9.228;2023-07-13T16:37:52;7.40;;;3.00;;
47922;SDS011;33688;44.354;9.228;2023-07-13T16:42:53;5.95;;;2.80;;
47922;SDS011;33688;44.354;9.228;2023-07-13T16:45:24;5.75;;;2.53;;
47922;SDS011;33688;44.354;9.228;2023-07-13T16:48:00;6.03;;;3.05;;
47922;SDS011;33688;44.354;9.228;2023-07-13T16:50:32;9.10;;;2.78;;
47922;SDS011;33688;44.354;9.228;2023-07-13T16:53:00;9.73;;;3.20;;